Keflavik, Iceland

8:58 AM GMT on February 10, 2016 (GMT +0000)
Keflavik | | Change Station
CLOSE
Current Station
Airport
Location: Keflavik,
Elevation: 177 ft
Nearby Weather Stations

Elev 177 ft 63.98 °N, 22.59 °W | Updated 28 minutes ago

Clear
Clear
28 °F
Feels Like 21 °F
N
7
Wind Variable Wind from ENE

Today
High -- | Low -- °F
--% Chance of Precip.
Yesterday
High -- | Low -- °F
Precip. -- in
Pressure 29.62 in
Visibility -9999.0 miles
Clouds
Windchill 21 °F
Dew Point 21 °F
Humidity 74%
Rainfall 0.00 in
Snow Depth Not available.
9:43 AM 5:47 PM
Waxing Crescent, 4% visible
METAR BIKF 100830Z 06006KT CAVOK M02/M06 Q1003 R20/390053
Pressure 29.62 in
Visibility -9999.0 miles
Clouds
Windchill 21 °F
Dew Point 21 °F
Humidity 74%
Rainfall 0.00 in
Snow Depth Not available.
9:43 AM 5:47 PM
Waxing Crescent, 4% visible
METAR BIKF 100830Z 06006KT CAVOK M02/M06 Q1003 R20/390053

10-Day Weather Forecast

Almanac

Astronomy

Feb. 10, 2016 Rise Set
Actual Time
Civil Twilight
Nautical Twilight
Astronomical Twilight
Moon
Length of Visible Light
Length of Day
Tomorrow will be .
, % of the Moon is Illuminated

Today's Extremes

Country Highs Country Lows

Community

WunderPhotos

Upload Photos

1,891,826 photos uploaded!

WunderBlog® & News

Nearby

Air Quality

  Air Quality AQ Index Pollutant
Not available.

Snow Depth

Station Depth Elevation

Earthquake Activity

City Distance Mag. Time & Date
Minimum magnitude displayed is 2.5.

Coastal Water Temperatures

Place Temperature

Stations

Nearby Weather Stations

Station Location Temp. Windchill Dew Point Humidity Wind Precip. Elev Updated Type